createdAt,value
2023-05-21T00:00:32.245Z,16.45
2023-05-21T00:02:59.646Z,16.39
2023-05-21T00:05:27.031Z,16.34
2023-05-21T00:07:55.095Z,16.30
2023-05-21T00:10:22.276Z,16.27
2023-05-21T00:12:49.371Z,16.23
2023-05-21T00:15:16.499Z,16.20
2023-05-21T00:17:43.728Z,16.17
2023-05-21T00:20:11.127Z,16.13
2023-05-21T00:22:38.191Z,16.11
2023-05-21T00:25:05.579Z,16.09
2023-05-21T00:27:32.535Z,16.07
2023-05-21T00:29:59.603Z,16.07
2023-05-21T00:32:26.714Z,16.05
2023-05-21T00:34:54.373Z,16.05
2023-05-21T00:37:21.985Z,16.03
2023-05-21T00:39:49.016Z,16.00
2023-05-21T00:42:18.371Z,15.96
2023-05-21T00:44:45.701Z,15.91
2023-05-21T00:47:13.096Z,15.86
2023-05-21T00:49:40.153Z,15.82
2023-05-21T00:52:07.504Z,15.79
2023-05-21T00:54:34.516Z,15.77
2023-05-21T00:57:01.773Z,15.75
2023-05-21T00:59:28.853Z,15.74
2023-05-21T01:01:56.555Z,15.73
2023-05-21T01:04:23.973Z,15.71
2023-05-21T01:06:51.297Z,15.69
2023-05-21T01:09:18.395Z,15.68
2023-05-21T01:11:47.846Z,15.66
2023-05-21T01:14:15.520Z,15.65
2023-05-21T01:16:44.262Z,15.65
2023-05-21T01:19:12.752Z,15.64
2023-05-21T01:21:42.685Z,15.64
2023-05-21T01:24:09.702Z,15.63
2023-05-21T01:26:39.025Z,15.61
2023-05-21T01:29:06.927Z,15.59
2023-05-21T01:31:39.708Z,15.60
2023-05-21T01:34:06.858Z,15.60
2023-05-21T01:36:38.308Z,15.61
2023-05-21T01:39:09.609Z,15.62
2023-05-21T01:41:38.445Z,15.64
2023-05-21T01:44:05.467Z,15.64
2023-05-21T01:46:33.641Z,15.64
2023-05-21T01:49:00.850Z,15.64
2023-05-21T01:51:28.137Z,15.62
2023-05-21T01:53:55.156Z,15.61
2023-05-21T01:56:26.124Z,15.60
2023-05-21T01:58:53.299Z,15.59
2023-05-21T02:01:20.537Z,15.57
2023-05-21T02:03:47.607Z,15.55
2023-05-21T02:06:14.800Z,15.51
2023-05-21T02:08:41.912Z,15.47
2023-05-21T02:11:10.260Z,15.44
2023-05-21T02:13:42.237Z,15.42
2023-05-21T02:16:12.152Z,15.41
2023-05-21T02:18:39.695Z,15.42
2023-05-21T02:21:06.853Z,15.43
2023-05-21T02:23:33.951Z,15.42
2023-05-21T02:26:00.992Z,15.42
2023-05-21T02:28:29.920Z,15.41
2023-05-21T02:30:57.328Z,15.40
2023-05-21T02:33:24.379Z,15.39
2023-05-21T02:35:51.472Z,15.39
2023-05-21T02:38:19.671Z,15.40
2023-05-21T02:40:46.822Z,15.41
2023-05-21T02:43:15.399Z,15.43
2023-05-21T02:45:43.819Z,15.45
2023-05-21T02:48:11.696Z,15.48
2023-05-21T02:50:40.887Z,15.50
2023-05-21T02:53:08.083Z,15.54
2023-05-21T02:55:35.681Z,15.57
2023-05-21T02:58:03.011Z,15.59
2023-05-21T03:00:30.114Z,15.59
2023-05-21T03:02:57.372Z,15.60
2023-05-21T03:05:24.674Z,15.64
2023-05-21T03:07:51.711Z,15.65
2023-05-21T03:10:18.817Z,15.68
2023-05-21T03:12:46.057Z,15.71
2023-05-21T03:15:14.988Z,15.74
2023-05-21T03:17:45.196Z,15.78
2023-05-21T03:20:17.307Z,15.80
2023-05-21T03:22:44.773Z,15.83
2023-05-21T03:25:12.524Z,15.87
2023-05-21T03:27:39.709Z,15.91
2023-05-21T03:30:12.387Z,15.95
2023-05-21T03:32:51.760Z,15.97
2023-05-21T03:35:18.912Z,15.98
2023-05-21T03:37:46.602Z,16.01
2023-05-21T03:40:14.339Z,16.04
2023-05-21T03:42:42.120Z,16.09
2023-05-21T03:45:09.712Z,16.12
2023-05-21T03:48:02.156Z,16.17
2023-05-21T03:50:30.184Z,16.21
2023-05-21T03:52:57.572Z,16.25
2023-05-21T03:55:24.618Z,16.32
2023-05-21T03:57:51.613Z,16.38
2023-05-21T04:00:18.952Z,16.44
2023-05-21T04:02:47.610Z,16.51
2023-05-21T04:05:16.486Z,16.57
2023-05-21T04:07:46.537Z,16.65
2023-05-21T04:10:13.918Z,16.72
2023-05-21T04:12:41.147Z,16.79
2023-05-21T04:15:08.710Z,16.88
2023-05-21T04:17:35.940Z,16.97
2023-05-21T04:20:04.077Z,17.05
2023-05-21T04:22:31.211Z,17.14
2023-05-21T04:24:59.813Z,17.23
2023-05-21T04:27:30.454Z,17.34
2023-05-21T04:29:58.250Z,17.44
2023-05-21T04:32:25.392Z,17.54
2023-05-21T04:34:52.481Z,17.64
2023-05-21T04:37:19.652Z,17.72
2023-05-21T04:39:47.127Z,17.80
2023-05-21T04:42:14.463Z,17.88
2023-05-21T04:44:44.718Z,17.97
2023-05-21T04:47:15.087Z,18.06
2023-05-21T04:49:42.448Z,18.15
2023-05-21T04:52:09.708Z,18.22
2023-05-21T04:54:39.329Z,18.27
2023-05-21T04:57:07.683Z,18.31
2023-05-21T04:59:35.562Z,18.36
2023-05-21T05:02:02.987Z,18.41
2023-05-21T05:04:30.070Z,18.48
2023-05-21T05:06:57.224Z,18.57
2023-05-21T05:09:26.168Z,18.67
2023-05-21T05:11:53.715Z,18.75
2023-05-21T05:14:20.847Z,18.76
2023-05-21T05:16:51.001Z,18.79
2023-05-21T05:19:18.387Z,18.87
2023-05-21T05:21:45.846Z,18.96
2023-05-21T05:24:13.005Z,19.02
2023-05-21T05:26:40.062Z,19.07
2023-05-21T05:29:07.198Z,19.13
2023-05-21T05:31:34.567Z,19.20
2023-05-21T05:34:02.461Z,19.24
2023-05-21T05:36:29.820Z,19.26
2023-05-21T05:38:57.022Z,19.27
2023-05-21T05:41:25.453Z,19.29
2023-05-21T05:43:52.992Z,19.34
2023-05-21T05:46:21.436Z,19.39
2023-05-21T05:48:48.647Z,19.48
2023-05-21T05:51:17.526Z,19.58
2023-05-21T05:53:45.810Z,19.65
2023-05-21T05:56:12.994Z,19.73
2023-05-21T05:58:41.052Z,19.83
2023-05-21T06:01:13.882Z,19.92
2023-05-21T06:03:41.305Z,19.98
2023-05-21T06:06:14.618Z,20.00
2023-05-21T06:08:43.652Z,20.04
2023-05-21T06:11:13.410Z,20.09
2023-05-21T06:13:41.805Z,20.12
2023-05-21T06:16:10.181Z,20.15
2023-05-21T06:18:38.309Z,20.21
2023-05-21T06:21:05.437Z,20.25
2023-05-21T06:23:32.871Z,20.27
2023-05-21T06:26:00.981Z,20.30
2023-05-21T06:28:28.163Z,20.34
2023-05-21T06:30:55.667Z,20.38
2023-05-21T06:33:24.118Z,20.47
2023-05-21T06:35:52.703Z,20.61
2023-05-21T06:38:20.546Z,20.72
2023-05-21T06:40:48.061Z,20.82
2023-05-21T06:43:21.127Z,20.88
2023-05-21T06:46:08.537Z,20.95
2023-05-21T06:48:38.978Z,21.03
2023-05-21T06:51:06.202Z,21.08
2023-05-21T06:53:33.458Z,21.10
2023-05-21T06:56:01.244Z,21.13
2023-05-21T06:58:36.372Z,21.14
2023-05-21T07:01:04.789Z,21.14
2023-05-21T07:03:32.087Z,21.17
2023-05-21T07:05:59.485Z,21.24
2023-05-21T07:08:26.622Z,21.31
2023-05-21T07:10:53.872Z,21.36
2023-05-21T07:13:21.638Z,21.40
2023-05-21T07:15:48.755Z,21.44
2023-05-21T07:18:16.973Z,21.45
2023-05-21T07:20:44.740Z,21.52
2023-05-21T07:23:13.997Z,21.63
2023-05-21T07:25:41.268Z,21.71
2023-05-21T07:28:09.353Z,21.72
2023-05-21T07:30:37.113Z,21.71
2023-05-21T07:33:06.613Z,21.74
2023-05-21T07:35:33.818Z,21.80
2023-05-21T07:38:01.022Z,21.88
2023-05-21T07:40:28.218Z,21.97
2023-05-21T07:42:55.511Z,22.10
2023-05-21T07:45:23.036Z,22.22
2023-05-21T07:47:50.621Z,22.33
2023-05-21T07:50:18.041Z,22.41
2023-05-21T07:52:45.242Z,22.53
2023-05-21T07:55:12.417Z,22.57
2023-05-21T07:57:40.292Z,22.58
2023-05-21T08:00:16.299Z,22.65
2023-05-21T08:02:47.745Z,22.70
2023-05-21T08:05:16.668Z,22.73
2023-05-21T08:07:46.141Z,22.77
2023-05-21T08:10:19.253Z,22.79
2023-05-21T08:12:49.893Z,22.75
2023-05-21T08:15:18.720Z,22.67
2023-05-21T08:17:48.284Z,22.50
2023-05-21T08:20:16.494Z,22.29
2023-05-21T08:22:45.349Z,22.09
2023-05-21T08:25:14.053Z,21.99
2023-05-21T08:27:42.413Z,21.96
2023-05-21T08:30:11.836Z,21.92
2023-05-21T08:32:39.899Z,21.98
2023-05-21T08:35:08.566Z,22.02
2023-05-21T08:37:56.573Z,22.17
2023-05-21T08:40:42.860Z,22.25
2023-05-21T08:43:14.027Z,22.30
2023-05-21T08:45:45.748Z,22.36
2023-05-21T08:48:13.410Z,22.40
2023-05-21T08:50:41.085Z,22.46
2023-05-21T08:53:19.859Z,22.54
2023-05-21T08:55:58.850Z,22.59
2023-05-21T08:58:35.811Z,22.60
2023-05-21T09:01:02.941Z,22.58
2023-05-21T09:03:31.977Z,22.62
2023-05-21T09:05:59.342Z,22.63
2023-05-21T09:08:33.049Z,22.66
2023-05-21T09:11:22.966Z,22.69
2023-05-21T09:13:54.479Z,22.80
2023-05-21T09:16:29.359Z,22.92
2023-05-21T09:18:56.700Z,23.03
2023-05-21T09:21:31.712Z,23.09
2023-05-21T09:24:09.902Z,23.04
2023-05-21T09:26:38.607Z,23.00
2023-05-21T09:29:06.259Z,23.00
2023-05-21T09:31:35.391Z,23.02
2023-05-21T09:34:02.819Z,23.06
2023-05-21T09:36:32.155Z,23.09
2023-05-21T09:39:00.387Z,23.13
2023-05-21T09:41:36.034Z,23.18
2023-05-21T09:44:04.242Z,23.30
2023-05-21T09:46:41.471Z,23.40
2023-05-21T09:49:26.592Z,23.49
2023-05-21T09:51:58.361Z,23.58
2023-05-21T09:54:35.132Z,23.64
2023-05-21T09:57:05.410Z,23.71
2023-05-21T09:59:36.739Z,23.70
2023-05-21T10:02:03.977Z,23.70
2023-05-21T10:04:31.812Z,23.73
2023-05-21T10:06:59.039Z,23.77
2023-05-21T10:09:26.172Z,23.84
2023-05-21T10:11:53.358Z,23.90
2023-05-21T10:14:20.709Z,23.93
2023-05-21T10:16:48.089Z,23.97
2023-05-21T10:19:15.894Z,23.99
2023-05-21T10:21:43.465Z,23.96
2023-05-21T10:24:10.695Z,23.86
2023-05-21T10:26:38.581Z,23.73
2023-05-21T10:29:05.680Z,23.66
2023-05-21T10:31:33.483Z,23.67
2023-05-21T10:34:00.838Z,23.74
2023-05-21T10:36:30.022Z,23.89
2023-05-21T10:38:57.352Z,24.03
2023-05-21T10:41:26.261Z,24.09
2023-05-21T10:44:05.388Z,24.08
2023-05-21T10:46:38.458Z,24.05
2023-05-21T10:49:25.662Z,24.01
2023-05-21T10:52:28.309Z,23.97
2023-05-21T10:55:38.283Z,24.00
2023-05-21T10:58:29.281Z,24.06
2023-05-21T11:00:57.141Z,24.08
2023-05-21T11:03:24.333Z,24.11
2023-05-21T11:05:52.354Z,24.15
2023-05-21T11:08:36.117Z,24.24
2023-05-21T11:11:03.947Z,24.35
2023-05-21T11:13:49.630Z,24.48
2023-05-21T11:16:17.173Z,24.60
2023-05-21T11:18:47.364Z,24.68
2023-05-21T11:21:16.120Z,24.72
2023-05-21T11:23:52.696Z,24.78
2023-05-21T11:26:30.554Z,24.87
2023-05-21T11:29:08.195Z,24.93
2023-05-21T11:31:39.471Z,25.02
2023-05-21T11:34:15.181Z,25.14
2023-05-21T11:36:45.992Z,25.26
2023-05-21T11:39:22.132Z,25.44
2023-05-21T11:42:01.609Z,25.65
2023-05-21T11:44:42.661Z,25.75
2023-05-21T11:47:11.448Z,25.76
2023-05-21T11:49:38.759Z,25.71
2023-05-21T11:52:06.815Z,25.68
2023-05-21T11:54:37.559Z,25.78
2023-05-21T11:57:08.179Z,25.92
2023-05-21T11:59:35.305Z,26.00
2023-05-21T12:02:03.239Z,26.10
2023-05-21T12:04:36.594Z,26.23
2023-05-21T12:07:05.285Z,26.30
2023-05-21T12:09:32.336Z,26.30
2023-05-21T12:12:00.997Z,26.27
2023-05-21T12:14:28.093Z,26.29
2023-05-21T12:16:55.237Z,26.32
2023-05-21T12:19:22.628Z,26.36
2023-05-21T12:21:49.723Z,26.44
2023-05-21T12:24:16.801Z,26.50
2023-05-21T12:26:46.108Z,26.62
2023-05-21T12:29:13.157Z,26.76
2023-05-21T12:31:49.786Z,26.85
2023-05-21T12:34:19.047Z,26.97
2023-05-21T12:36:48.400Z,27.06
2023-05-21T12:39:16.587Z,27.07
2023-05-21T12:41:44.146Z,27.10
2023-05-21T12:44:14.543Z,27.10
2023-05-21T12:46:41.824Z,26.93
2023-05-21T12:49:09.086Z,26.80
2023-05-21T12:51:40.199Z,26.81
2023-05-21T12:54:14.253Z,26.79
2023-05-21T12:56:45.596Z,26.69
2023-05-21T12:59:16.032Z,26.51
2023-05-21T13:01:43.153Z,26.30
2023-05-21T13:04:10.351Z,26.13
2023-05-21T13:06:44.038Z,26.01
2023-05-21T13:09:11.156Z,25.87
2023-05-21T13:11:38.274Z,25.73
2023-05-21T13:14:05.413Z,25.58
2023-05-21T13:16:32.850Z,25.40
2023-05-21T13:19:00.937Z,25.17
2023-05-21T13:21:28.885Z,24.98
2023-05-21T13:23:56.114Z,24.91
2023-05-21T13:26:23.404Z,24.84
2023-05-21T13:28:50.686Z,24.77
2023-05-21T13:31:18.322Z,24.72
2023-05-21T13:33:45.587Z,24.69
2023-05-21T13:36:12.783Z,24.70
2023-05-21T13:38:39.867Z,24.71
2023-05-21T13:41:07.383Z,24.75
2023-05-21T13:43:34.637Z,24.81
2023-05-21T13:46:02.253Z,24.87
2023-05-21T13:48:29.598Z,24.93
2023-05-21T13:50:56.786Z,24.94
2023-05-21T13:53:24.023Z,24.90
2023-05-21T13:55:51.322Z,24.85
2023-05-21T13:58:18.483Z,24.83
2023-05-21T14:00:45.797Z,24.85
2023-05-21T14:03:13.017Z,24.93
2023-05-21T14:05:40.217Z,25.06
2023-05-21T14:08:07.330Z,25.15
2023-05-21T14:10:34.672Z,25.22
2023-05-21T14:13:15.400Z,25.35
2023-05-21T14:15:43.372Z,25.90
2023-05-21T14:18:12.484Z,26.68
2023-05-21T14:20:39.780Z,27.32
2023-05-21T14:23:07.178Z,27.83
2023-05-21T14:25:34.727Z,28.43
2023-05-21T14:28:01.929Z,29.13
2023-05-21T14:30:29.162Z,29.68
2023-05-21T14:32:58.008Z,29.76
2023-05-21T14:35:25.312Z,29.66
2023-05-21T14:37:53.311Z,29.74
2023-05-21T14:40:20.768Z,29.84
2023-05-21T14:42:47.807Z,29.95
2023-05-21T14:45:19.212Z,30.14
2023-05-21T14:47:47.929Z,30.21
2023-05-21T14:50:15.943Z,30.31
2023-05-21T14:52:43.383Z,30.25
2023-05-21T14:55:10.907Z,29.82
2023-05-21T14:57:38.276Z,29.07
2023-05-21T15:00:06.092Z,28.14
2023-05-21T15:02:33.300Z,27.32
2023-05-21T15:05:00.679Z,26.73
2023-05-21T15:07:27.737Z,26.32
2023-05-21T15:09:54.792Z,26.02
2023-05-21T15:12:21.878Z,25.72
2023-05-21T15:14:48.995Z,25.45
2023-05-21T15:17:16.110Z,25.22
2023-05-21T15:19:43.277Z,25.05
2023-05-21T15:22:10.401Z,24.97
2023-05-21T15:24:37.786Z,24.89
2023-05-21T15:27:06.015Z,24.83
2023-05-21T15:29:33.327Z,24.70
2023-05-21T15:32:01.367Z,24.52
2023-05-21T15:34:28.605Z,24.33
2023-05-21T15:36:58.114Z,24.17
2023-05-21T15:39:25.338Z,24.01
2023-05-21T15:41:54.145Z,23.91
2023-05-21T15:44:23.856Z,23.83
2023-05-21T15:46:51.825Z,23.75
2023-05-21T15:49:19.174Z,23.71
2023-05-21T15:51:49.481Z,23.68
2023-05-21T15:54:16.627Z,23.64
2023-05-21T15:56:45.460Z,23.56
2023-05-21T15:59:14.070Z,23.45
2023-05-21T16:01:41.204Z,23.34
2023-05-21T16:04:08.414Z,23.24
2023-05-21T16:06:35.577Z,23.15
2023-05-21T16:09:02.723Z,23.09
2023-05-21T16:11:29.846Z,23.05
2023-05-21T16:13:57.646Z,22.99
2023-05-21T16:16:24.949Z,22.92
2023-05-21T16:18:52.210Z,22.85
2023-05-21T16:21:19.365Z,22.75
2023-05-21T16:23:46.594Z,22.64
2023-05-21T16:26:13.836Z,22.56
2023-05-21T16:28:41.425Z,22.49
2023-05-21T16:31:09.837Z,22.39
2023-05-21T16:33:36.959Z,22.29
2023-05-21T16:36:04.947Z,22.19
2023-05-21T16:38:35.545Z,22.09
2023-05-21T16:41:02.720Z,21.99
2023-05-21T16:43:30.266Z,21.90
2023-05-21T16:45:57.545Z,21.81
2023-05-21T16:48:26.127Z,21.74
2023-05-21T16:50:53.309Z,21.68
2023-05-21T16:53:20.740Z,21.64
2023-05-21T16:55:48.071Z,21.61
2023-05-21T16:58:15.285Z,21.56
2023-05-21T17:00:42.647Z,21.49
2023-05-21T17:03:09.875Z,21.46
2023-05-21T17:05:37.346Z,21.48
2023-05-21T17:08:04.916Z,21.45
2023-05-21T17:10:32.655Z,21.39
2023-05-21T17:13:01.854Z,21.29
2023-05-21T17:15:33.874Z,21.19
2023-05-21T17:18:01.176Z,21.09
2023-05-21T17:20:29.913Z,21.00
2023-05-21T17:22:57.171Z,20.92
2023-05-21T17:25:25.345Z,20.84
2023-05-21T17:27:53.380Z,20.76
2023-05-21T17:30:22.559Z,20.70
2023-05-21T17:32:50.967Z,20.65
2023-05-21T17:35:18.283Z,20.62
2023-05-21T17:37:45.626Z,20.57
2023-05-21T17:40:13.022Z,20.55
2023-05-21T17:42:40.134Z,20.55
2023-05-21T17:45:07.598Z,20.56
2023-05-21T17:47:34.777Z,20.59
2023-05-21T17:50:01.920Z,20.59
2023-05-21T17:52:29.393Z,20.61
2023-05-21T17:54:56.702Z,20.60
2023-05-21T17:57:23.805Z,20.61
2023-05-21T17:59:51.048Z,20.60
2023-05-21T18:02:18.230Z,20.58
2023-05-21T18:04:45.586Z,20.58
2023-05-21T18:07:12.673Z,20.56
2023-05-21T18:09:39.729Z,20.56
2023-05-21T18:12:07.436Z,20.55
2023-05-21T18:14:34.637Z,20.50
2023-05-21T18:17:01.838Z,20.47
2023-05-21T18:19:30.227Z,20.44
2023-05-21T18:21:57.548Z,20.42
2023-05-21T18:24:24.711Z,20.41
2023-05-21T18:26:51.897Z,20.37
2023-05-21T18:29:18.946Z,20.35
2023-05-21T18:31:46.347Z,20.35
2023-05-21T18:34:14.378Z,20.33
2023-05-21T18:36:41.631Z,20.29
2023-05-21T18:39:09.338Z,20.30
2023-05-21T18:41:37.494Z,20.29
2023-05-21T18:44:06.298Z,20.25
2023-05-21T18:46:33.483Z,20.22
2023-05-21T18:49:01.150Z,20.21
2023-05-21T18:51:28.387Z,20.20
2023-05-21T18:53:56.169Z,20.17
2023-05-21T18:56:23.269Z,20.11
2023-05-21T18:58:50.471Z,20.05
2023-05-21T19:01:18.451Z,19.99
2023-05-21T19:03:45.929Z,19.92
2023-05-21T19:06:13.145Z,19.85
2023-05-21T19:08:41.411Z,19.79
2023-05-21T19:11:08.722Z,19.70
2023-05-21T19:13:35.900Z,19.65
2023-05-21T19:16:03.197Z,19.58
2023-05-21T19:18:31.803Z,19.52
2023-05-21T19:21:00.373Z,19.48
2023-05-21T19:23:28.571Z,19.43
2023-05-21T19:25:56.662Z,19.40
2023-05-21T19:28:23.906Z,19.37
2023-05-21T19:30:51.167Z,19.35
2023-05-21T19:33:18.357Z,19.29
2023-05-21T19:35:45.605Z,19.25
2023-05-21T19:38:12.904Z,19.20
2023-05-21T19:40:40.878Z,19.15
2023-05-21T19:43:07.935Z,19.10
2023-05-21T19:45:35.328Z,19.04
2023-05-21T19:48:02.810Z,19.00
2023-05-21T19:50:30.182Z,18.95
2023-05-21T19:52:57.414Z,18.91
2023-05-21T19:55:25.128Z,18.86
2023-05-21T19:57:52.241Z,18.83
2023-05-21T20:00:19.743Z,18.80
2023-05-21T20:02:46.955Z,18.78
2023-05-21T20:05:14.749Z,18.80
2023-05-21T20:07:42.563Z,18.79
2023-05-21T20:10:09.794Z,18.75
2023-05-21T20:12:37.245Z,18.72
2023-05-21T20:15:08.167Z,18.73
2023-05-21T20:17:36.266Z,18.73
2023-05-21T20:20:06.275Z,18.71
2023-05-21T20:22:33.527Z,18.70
2023-05-21T20:25:01.927Z,18.71
2023-05-21T20:27:28.949Z,18.74
2023-05-21T20:29:56.174Z,18.74
2023-05-21T20:32:23.307Z,18.70
2023-05-21T20:35:02.138Z,18.61
2023-05-21T20:37:32.565Z,18.55
2023-05-21T20:40:00.063Z,18.49
2023-05-21T20:42:28.766Z,18.42
2023-05-21T20:44:58.988Z,18.38
2023-05-21T20:47:30.256Z,18.36
2023-05-21T20:49:59.038Z,18.36
2023-05-21T20:52:26.268Z,18.36
2023-05-21T20:54:54.941Z,18.35
2023-05-21T20:57:26.301Z,18.33
2023-05-21T20:59:53.748Z,18.31
2023-05-21T21:02:21.309Z,18.30
2023-05-21T21:04:51.198Z,18.29
2023-05-21T21:07:18.432Z,18.29
2023-05-21T21:09:46.693Z,18.28
2023-05-21T21:12:25.220Z,18.27
2023-05-21T21:14:53.647Z,18.26
2023-05-21T21:17:20.937Z,18.24
2023-05-21T21:19:48.023Z,18.23
2023-05-21T21:22:15.733Z,18.18
2023-05-21T21:24:42.790Z,18.18
2023-05-21T21:27:10.173Z,18.16
2023-05-21T21:29:37.213Z,18.13
2023-05-21T21:32:04.734Z,18.12
2023-05-21T21:34:31.759Z,18.12
2023-05-21T21:36:58.791Z,18.11
2023-05-21T21:39:26.993Z,18.11
2023-05-21T21:41:54.154Z,18.10
2023-05-21T21:44:21.830Z,18.09
2023-05-21T21:46:49.189Z,18.10
2023-05-21T21:49:19.208Z,18.11
2023-05-21T21:51:46.379Z,18.12
2023-05-21T21:54:13.419Z,18.13
2023-05-21T21:56:40.779Z,18.13
2023-05-21T21:59:08.009Z,18.13
2023-05-21T22:01:36.260Z,18.12
2023-05-21T22:04:03.508Z,18.10
2023-05-21T22:06:31.655Z,18.08
2023-05-21T22:08:58.897Z,18.02
2023-05-21T22:11:27.089Z,17.96
2023-05-21T22:13:54.353Z,17.91
2023-05-21T22:16:21.408Z,17.85
2023-05-21T22:18:50.308Z,17.80
2023-05-21T22:21:18.577Z,17.72
2023-05-21T22:23:45.690Z,17.67
2023-05-21T22:26:12.701Z,17.62
2023-05-21T22:28:39.818Z,17.57
2023-05-21T22:31:07.846Z,17.55
2023-05-21T22:33:34.937Z,17.54
2023-05-21T22:36:02.094Z,17.52
2023-05-21T22:38:29.188Z,17.52
2023-05-21T22:40:56.358Z,17.50
2023-05-21T22:43:23.878Z,17.48
2023-05-21T22:45:50.899Z,17.42
2023-05-21T22:48:18.354Z,17.38
2023-05-21T22:50:46.308Z,17.34
2023-05-21T22:53:13.947Z,17.28
2023-05-21T22:55:41.283Z,17.21
2023-05-21T22:58:08.735Z,17.15
2023-05-21T23:00:36.207Z,17.07
2023-05-21T23:03:03.889Z,16.99
2023-05-21T23:05:31.433Z,16.91
2023-05-21T23:07:58.462Z,16.86
2023-05-21T23:10:25.689Z,16.81
2023-05-21T23:12:52.873Z,16.80
2023-05-21T23:15:19.955Z,16.79
2023-05-21T23:17:47.245Z,16.79
2023-05-21T23:20:15.618Z,16.81
2023-05-21T23:22:42.643Z,16.85
2023-05-21T23:25:10.060Z,16.86
2023-05-21T23:27:37.198Z,16.88
2023-05-21T23:30:04.565Z,16.90
2023-05-21T23:32:31.671Z,16.93
2023-05-21T23:34:58.796Z,16.95
2023-05-21T23:37:25.970Z,16.98
2023-05-21T23:39:52.985Z,17.02
2023-05-21T23:42:20.258Z,17.06
2023-05-21T23:44:47.392Z,17.09
2023-05-21T23:47:14.424Z,17.14
2023-05-21T23:49:41.456Z,17.17
2023-05-21T23:52:08.733Z,17.23
2023-05-21T23:54:35.906Z,17.27
2023-05-21T23:57:03.122Z,17.29
2023-05-21T23:59:30.249Z,17.30
